Time;durP1;ratioP1;P1;durP2;ratioP2;P2;SDS_P1;SDS_P2;PMS_P1;PMS_P2;Temp;Humidity;BMP_temperature;BMP_pressure;BME280_temperature;BME280_humidity;BME280_pressure;Samples;Min_cycle;Max_cycle;Signal;HPM_P1;HPM_P2
2021/12/12 00:00:58;;;;;;;4.50;2.13;;;8.40;57.00;;;;;;6219052;28;20057;-67
2021/12/12 00:04:14;;;;;;;5.93;2.55;;;8.30;57.00;;;;;;6198256;28;20117;-68
2021/12/12 00:07:24;;;;;;;4.15;2.60;;;8.30;57.00;;;;;;6205194;28;20125;-68
2021/12/12 00:10:28;;;;;;;2.80;1.77;;;8.30;57.10;;;;;;6219677;28;20482;-68
2021/12/12 00:13:38;;;;;;;2.88;2.00;;;8.30;57.10;;;;;;6218608;28;20048;-67
2021/12/12 00:16:39;;;;;;;7.57;2.72;;;8.20;57.20;;;;;;6194056;28;20060;-67
2021/12/12 00:19:41;;;;;;;6.35;2.35;;;8.20;57.40;;;;;;6219235;28;20450;-68
2021/12/12 00:22:42;;;;;;;4.50;2.35;;;8.10;57.40;;;;;;6219707;28;20071;-68
2021/12/12 00:25:50;;;;;;;5.68;2.92;;;8.10;57.60;;;;;;6219159;28;20399;-68
2021/12/12 00:28:52;;;;;;;3.50;1.85;;;8.10;57.60;;;;;;6219822;28;20049;-68
2021/12/12 00:31:57;;;;;;;7.30;1.80;;;8.00;57.70;;;;;;6222400;28;20034;-67
2021/12/12 00:35:03;;;;;;;4.28;1.80;;;8.00;57.70;;;;;;6221124;28;20117;-68
2021/12/12 00:38:14;;;;;;;3.80;2.10;;;7.90;57.80;;;;;;6237842;28;20473;-69
2021/12/12 00:41:24;;;;;;;10.80;2.45;;;7.90;58.00;;;;;;6247528;28;20036;-69
2021/12/12 00:44:25;;;;;;;14.73;3.30;;;7.90;58.10;;;;;;6255447;28;20041;-68
2021/12/12 00:47:26;;;;;;;5.00;2.47;;;7.80;58.20;;;;;;6270494;28;20043;-68
2021/12/12 00:50:40;;;;;;;9.57;2.80;;;7.80;58.30;;;;;;6271585;28;20032;-68
2021/12/12 00:53:43;;;;;;;5.63;2.10;;;7.70;58.50;;;;;;6271114;28;20032;-68
2021/12/12 00:56:45;;;;;;;10.73;3.03;;;7.70;58.60;;;;;;6271402;28;20037;-68
2021/12/12 00:59:47;;;;;;;4.72;2.45;;;7.70;58.60;;;;;;6221875;28;20038;-68
2021/12/12 01:02:49;;;;;;;5.10;2.20;;;7.70;58.60;;;;;;6205231;28;20034;-68
2021/12/12 01:05:52;;;;;;;11.25;2.83;;;7.70;58.60;;;;;;6196647;28;20388;-68
2021/12/12 01:08:56;;;;;;;7.13;2.90;;;7.70;58.60;;;;;;6182173;28;20483;-68
2021/12/12 01:12:00;;;;;;;10.55;2.97;;;7.80;58.60;;;;;;6198416;28;20392;-68
2021/12/12 01:15:23;;;;;;;4.65;2.22;;;7.80;58.60;;;;;;6211051;28;20029;-68
2021/12/12 01:18:30;;;;;;;5.60;2.85;;;7.80;58.60;;;;;;6268549;28;20033;-68
2021/12/12 01:21:35;;;;;;;10.75;3.08;;;7.80;58.60;;;;;;6266472;28;20045;-68
2021/12/12 01:24:44;;;;;;;7.18;2.80;;;7.80;58.70;;;;;;6270150;28;20037;-67
2021/12/12 01:27:47;;;;;;;9.10;2.55;;;7.70;58.60;;;;;;6268786;28;20025;-68
2021/12/12 01:30:50;;;;;;;4.80;2.70;;;7.70;58.60;;;;;;6246093;28;20063;-67
2021/12/12 01:33:59;;;;;;;5.57;2.63;;;7.70;58.70;;;;;;6234003;28;20038;-68
2021/12/12 01:40:26;;;;;;;6.40;2.92;;;7.60;58.90;;;;;;6220216;28;20448;-68
2021/12/12 01:43:51;;;;;;;5.97;2.95;;;7.60;58.90;;;;;;6209111;28;20040;-68
2021/12/12 01:47:12;;;;;;;5.65;3.10;;;7.60;58.90;;;;;;6268991;28;20132;-68
2021/12/12 01:50:23;;;;;;;10.55;3.78;;;7.50;59.00;;;;;;6268095;28;20032;-68
2021/12/12 01:53:27;;;;;;;6.85;3.22;;;7.50;59.00;;;;;;6227825;28;20029;-68
2021/12/12 01:56:32;;;;;;;11.80;4.32;;;7.50;59.00;;;;;;6267606;28;20032;-68
2021/12/12 01:59:36;;;;;;;10.80;2.78;;;7.50;59.00;;;;;;6256346;28;20041;-68
2021/12/12 02:02:37;;;;;;;6.30;3.00;;;7.50;59.10;;;;;;6245242;28;20443;-68
2021/12/12 02:05:39;;;;;;;10.82;3.50;;;7.50;59.20;;;;;;6243796;28;20037;-68
2021/12/12 02:08:42;;;;;;;13.75;3.05;;;7.40;59.20;;;;;;6244991;28;20577;-68
2021/12/12 02:11:46;;;;;;;6.90;3.13;;;7.40;59.40;;;;;;6240996;28;20038;-68
2021/12/12 02:14:47;;;;;;;10.75;2.72;;;7.30;59.30;;;;;;6257130;28;20033;-68
2021/12/12 02:17:50;;;;;;;6.93;2.95;;;7.30;59.40;;;;;;6270500;28;20052;-68
2021/12/12 02:21:15;;;;;;;5.78;2.95;;;7.10;59.60;;;;;;6244057;28;20037;-68
2021/12/12 02:37:41;;;;;;;4.22;2.42;;;6.90;60.20;;;;;;6248838;28;20055;-67
2021/12/12 02:40:50;;;;;;;4.95;2.17;;;6.90;60.30;;;;;;6247770;28;20071;-67
2021/12/12 02:43:57;;;;;;;3.83;2.03;;;6.90;60.40;;;;;;6247524;28;20041;-68
2021/12/12 02:47:00;;;;;;;5.72;2.60;;;7.00;60.40;;;;;;6247480;28;20041;-68
2021/12/12 02:50:13;;;;;;;5.57;2.60;;;7.00;60.30;;;;;;6248750;28;20095;-68
2021/12/12 02:53:29;;;;;;;5.13;2.50;;;7.00;60.20;;;;;;6247722;28;20045;-68
2021/12/12 02:56:34;;;;;;;4.43;1.67;;;7.00;60.30;;;;;;6247376;28;20041;-68
2021/12/12 02:59:38;;;;;;;7.50;2.22;;;7.00;60.30;;;;;;6231785;28;20512;-67
2021/12/12 03:02:45;;;;;;;4.07;2.42;;;7.00;60.30;;;;;;6261139;28;20041;-67
2021/12/12 03:05:48;;;;;;;6.15;2.80;;;7.00;60.60;;;;;;6224372;28;20121;-68
2021/12/12 03:08:55;;;;;;;16.52;3.03;;;7.00;60.60;;;;;;6207566;28;20049;-68
2021/12/12 03:12:02;;;;;;;8.93;3.63;;;7.00;60.60;;;;;;6223701;28;20073;-68
2021/12/12 03:15:22;;;;;;;6.10;2.45;;;7.00;60.70;;;;;;6249552;28;20122;-68
2021/12/12 03:18:40;;;;;;;8.07;3.22;;;7.00;60.70;;;;;;6247494;28;20501;-68
2021/12/12 03:21:42;;;;;;;4.53;3.10;;;7.00;60.90;;;;;;6249043;28;20048;-68
2021/12/12 03:24:43;;;;;;;8.50;3.15;;;6.90;61.00;;;;;;6247776;28;20256;-68
2021/12/12 03:27:45;;;;;;;4.53;2.40;;;6.90;60.90;;;;;;6247859;28;20395;-68
2021/12/12 03:30:48;;;;;;;8.73;2.47;;;6.80;61.00;;;;;;6248188;28;20348;-68
2021/12/12 03:33:50;;;;;;;6.75;2.25;;;6.70;60.90;;;;;;6237592;28;20379;-68
2021/12/12 03:36:53;;;;;;;12.02;2.95;;;6.60;60.90;;;;;;6205833;28;20410;-68
2021/12/12 03:39:56;;;;;;;5.68;2.42;;;6.60;61.00;;;;;;6199979;28;20031;-68
2021/12/12 03:43:00;;;;;;;5.90;2.67;;;6.50;61.10;;;;;;6200067;28;20034;-69
2021/12/12 03:46:02;;;;;;;8.18;2.08;;;6.50;61.30;;;;;;6248892;28;20088;-68
2021/12/12 03:49:05;;;;;;;4.78;2.67;;;6.40;61.50;;;;;;6271813;28;20175;-68
2021/12/12 03:52:09;;;;;;;3.90;2.15;;;6.30;62.50;;;;;;6272265;28;20366;-68
2021/12/12 03:55:10;;;;;;;5.43;2.17;;;6.30;61.80;;;;;;6272000;28;20492;-68
2021/12/12 03:58:12;;;;;;;3.97;2.30;;;6.30;61.80;;;;;;6270909;28;20450;-68
2021/12/12 04:01:43;;;;;;;6.20;2.72;;;6.30;61.80;;;;;;6247981;28;20029;-68
2021/12/12 04:04:47;;;;;;;5.30;2.33;;;6.40;61.90;;;;;;6222030;28;20034;-68
2021/12/12 04:07:49;;;;;;;6.60;2.25;;;6.40;61.90;;;;;;6221131;28;20038;-68
2021/12/12 04:10:50;;;;;;;5.05;2.88;;;6.30;61.90;;;;;;6217017;28;20293;-68
2021/12/12 04:13:54;;;;;;;4.35;2.60;;;6.40;62.10;;;;;;6230129;28;20090;-69
2021/12/12 04:16:58;;;;;;;5.00;2.90;;;6.40;62.10;;;;;;6232027;28;20364;-69
2021/12/12 04:20:32;;;;;;;6.40;3.30;;;6.40;62.20;;;;;;6222346;28;20042;-68
2021/12/12 04:23:33;;;;;;;6.32;3.05;;;6.40;62.30;;;;;;6219860;28;20030;-68
2021/12/12 04:26:42;;;;;;;6.55;2.78;;;6.40;62.20;;;;;;6204589;28;20037;-68
2021/12/12 04:29:46;;;;;;;5.95;3.13;;;6.40;62.20;;;;;;6240523;28;20399;-70
2021/12/12 04:32:48;;;;;;;7.25;3.58;;;6.40;62.20;;;;;;6226381;28;20096;-68
2021/12/12 04:35:49;;;;;;;4.53;3.00;;;6.50;62.30;;;;;;6245332;28;20033;-68
2021/12/12 04:38:50;;;;;;;6.30;3.17;;;6.40;62.30;;;;;;6261306;28;20037;-68
2021/12/12 04:41:53;;;;;;;5.80;2.92;;;6.30;62.30;;;;;;6251842;28;20328;-68
2021/12/12 04:45:09;;;;;;;7.47;3.50;;;6.30;62.40;;;;;;6258788;28;20048;-68
2021/12/12 04:51:45;;;;;;;6.95;2.97;;;6.30;62.70;;;;;;6270669;28;20347;-68
2021/12/12 04:54:54;;;;;;;6.82;3.75;;;6.20;62.80;;;;;;6268849;28;20045;-67
2021/12/12 04:58:16;;;;;;;6.93;3.00;;;6.20;62.90;;;;;;6268921;28;20036;-68
2021/12/12 05:01:23;;;;;;;8.43;3.53;;;6.20;63.00;;;;;;6235055;28;20125;-68
2021/12/12 05:04:56;;;;;;;18.88;3.28;;;6.20;63.00;;;;;;6229233;28;20038;-68
2021/12/12 05:08:10;;;;;;;6.68;3.67;;;6.30;63.00;;;;;;6225555;28;20044;-68
2021/12/12 05:11:35;;;;;;;10.20;3.67;;;6.30;62.90;;;;;;6222720;28;20026;-68
2021/12/12 05:14:40;;;;;;;4.82;2.80;;;6.30;62.70;;;;;;6239115;28;20057;-69
2021/12/12 05:18:13;;;;;;;7.28;2.95;;;6.30;62.60;;;;;;6219876;28;20042;-67
2021/12/12 05:21:16;;;;;;;5.78;2.28;;;6.30;62.40;;;;;;6216723;28;20049;-68
2021/12/12 05:24:21;;;;;;;5.38;2.65;;;6.30;63.00;;;;;;6221708;28;20034;-68
2021/12/12 05:27:24;;;;;;;8.23;3.17;;;6.30;62.10;;;;;;6218980;28;20141;-69
2021/12/12 05:30:29;;;;;;;11.00;3.05;;;6.30;62.10;;;;;;6179941;28;20038;-67
2021/12/12 05:33:31;;;;;;;8.05;3.00;;;6.30;62.10;;;;;;6192557;28;20561;-68
2021/12/12 05:36:33;;;;;;;9.45;4.28;;;6.20;61.90;;;;;;6218814;28;20462;-68
2021/12/12 05:39:35;;;;;;;5.88;3.80;;;6.20;62.70;;;;;;6240269;28;20088;-67
2021/12/12 05:42:37;;;;;;;9.50;4.43;;;6.20;61.90;;;;;;6221292;28;20505;-67
2021/12/12 05:45:38;;;;;;;9.88;4.55;;;6.20;62.00;;;;;;6220037;28;20038;-68
2021/12/12 05:48:39;;;;;;;8.75;4.65;;;6.10;62.10;;;;;;6245650;28;20100;-68
2021/12/12 05:51:41;;;;;;;5.47;3.20;;;6.10;62.10;;;;;;6245531;28;20038;-68
2021/12/12 05:54:44;;;;;;;7.13;2.60;;;6.10;62.20;;;;;;6244060;28;20116;-68
2021/12/12 05:57:53;;;;;;;6.70;3.35;;;6.00;62.20;;;;;;6227485;28;20045;-67
2021/12/12 06:00:58;;;;;;;4.88;3.03;;;6.00;62.40;;;;;;6218424;28;20034;-67
2021/12/12 06:03:59;;;;;;;5.80;3.22;;;6.00;62.50;;;;;;6208344;28;20452;-68
2021/12/12 06:07:04;;;;;;;8.02;3.67;;;6.10;62.60;;;;;;6202179;28;20073;-67
2021/12/12 06:10:12;;;;;;;6.78;3.13;;;6.10;62.60;;;;;;6197001;28;20069;-67
2021/12/12 06:13:16;;;;;;;11.82;3.08;;;6.10;62.60;;;;;;6225906;28;20123;-67
2021/12/12 06:16:19;;;;;;;8.73;4.18;;;6.10;62.50;;;;;;6240091;28;20030;-69
2021/12/12 06:19:23;;;;;;;4.65;3.00;;;6.10;62.50;;;;;;6225907;28;20049;-67
2021/12/12 06:22:24;;;;;;;4.72;3.10;;;6.10;62.40;;;;;;6233036;28;20400;-68
2021/12/12 06:25:26;;;;;;;8.95;3.72;;;6.10;62.40;;;;;;6250653;28;20087;-68
2021/12/12 06:28:31;;;;;;;8.85;3.55;;;6.10;62.40;;;;;;6243615;28;20065;-69
2021/12/12 06:31:36;;;;;;;6.50;3.80;;;6.10;62.40;;;;;;6205244;28;20092;-68
2021/12/12 06:34:38;;;;;;;13.65;3.80;;;6.10;62.40;;;;;;6220727;28;20136;-68
2021/12/12 06:37:42;;;;;;;7.53;3.42;;;6.10;62.20;;;;;;6208101;28;20046;-68
2021/12/12 06:40:44;;;;;;;7.10;3.67;;;6.10;62.20;;;;;;6243191;28;20045;-68
2021/12/12 06:43:47;;;;;;;6.82;3.13;;;6.10;62.30;;;;;;6223854;28;20147;-68
2021/12/12 06:46:49;;;;;;;8.30;3.60;;;6.00;62.20;;;;;;6244624;28;20339;-68
2021/12/12 06:49:51;;;;;;;7.13;3.90;;;6.00;62.30;;;;;;6224176;28;20443;-68
2021/12/12 06:52:54;;;;;;;8.02;3.38;;;6.00;62.40;;;;;;6224442;28;20076;-68
2021/12/12 06:55:57;;;;;;;4.80;3.05;;;6.00;62.50;;;;;;6244636;28;20037;-68
2021/12/12 06:58:58;;;;;;;6.65;3.40;;;6.00;62.60;;;;;;6231237;28;20079;-69
2021/12/12 07:02:00;;;;;;;18.65;3.22;;;6.10;62.60;;;;;;6228932;28;20366;-68
2021/12/12 07:05:02;;;;;;;4.13;2.85;;;6.10;62.60;;;;;;6200206;28;20057;-69
2021/12/12 07:08:04;;;;;;;4.72;2.28;;;6.10;62.50;;;;;;6200833;28;20050;-68
2021/12/12 07:11:07;;;;;;;6.05;3.35;;;6.00;62.20;;;;;;6200379;28;20038;-68
2021/12/12 07:14:10;;;;;;;6.75;3.53;;;6.10;62.10;;;;;;6211662;28;20049;-68
2021/12/12 07:17:11;;;;;;;5.43;2.85;;;6.00;61.80;;;;;;6273799;28;20037;-67
2021/12/12 07:20:13;;;;;;;7.22;2.42;;;6.00;61.70;;;;;;6272889;28;20043;-69
2021/12/12 07:23:15;;;;;;;6.38;3.45;;;6.00;61.70;;;;;;6272586;28;20059;-69
2021/12/12 07:26:18;;;;;;;9.15;3.88;;;6.00;61.50;;;;;;6272588;28;20037;-69
2021/12/12 07:29:19;;;;;;;9.02;3.03;;;6.10;61.40;;;;;;6263111;28;20514;-68
2021/12/12 07:32:20;;;;;;;10.88;2.58;;;6.00;61.20;;;;;;6251403;28;20028;-68
2021/12/12 07:35:22;;;;;;;7.60;3.05;;;6.00;61.20;;;;;;6224322;28;20026;-68
2021/12/12 07:38:24;;;;;;;13.77;4.07;;;6.00;61.20;;;;;;6240615;28;20046;-69
2021/12/12 07:41:28;;;;;;;10.77;3.65;;;6.00;61.00;;;;;;6224391;28;20050;-69
2021/12/12 07:44:33;;;;;;;8.07;3.25;;;6.00;61.00;;;;;;6233262;28;20106;-68
2021/12/12 07:47:35;;;;;;;6.32;3.25;;;6.00;61.00;;;;;;6248812;28;20112;-69
2021/12/12 07:50:37;;;;;;;3.40;2.08;;;6.00;61.10;;;;;;6248702;28;20467;-68
2021/12/12 07:53:38;;;;;;;6.00;3.13;;;6.00;61.70;;;;;;6248474;28;20365;-68
2021/12/12 07:56:42;;;;;;;4.35;2.78;;;6.00;61.00;;;;;;6246853;28;20053;-68
2021/12/12 07:59:44;;;;;;;5.57;2.72;;;5.90;61.00;;;;;;6242949;28;20093;-70
2021/12/12 08:02:46;;;;;;;5.95;3.20;;;5.90;60.80;;;;;;6222201;28;20375;-68
2021/12/12 08:05:49;;;;;;;5.00;2.70;;;5.90;60.70;;;;;;6201340;28;20474;-68
2021/12/12 08:08:52;;;;;;;5.10;2.97;;;6.00;60.70;;;;;;6216355;28;20068;-67
2021/12/12 08:11:53;;;;;;;7.85;3.42;;;6.00;60.50;;;;;;6203444;28;20073;-67
2021/12/12 08:14:55;;;;;;;10.65;3.03;;;6.00;60.50;;;;;;6249851;28;20037;-69
2021/12/12 08:17:59;;;;;;;5.65;3.08;;;6.10;60.50;;;;;;6274751;28;20040;-69
2021/12/12 08:21:00;;;;;;;6.32;3.55;;;6.20;60.50;;;;;;6275017;28;20037;-68
2021/12/12 08:24:06;;;;;;;7.18;3.13;;;6.20;60.20;;;;;;6273210;28;20132;-67
2021/12/12 08:27:09;;;;;;;6.72;3.97;;;6.30;60.10;;;;;;6246787;28;20068;-69
2021/12/12 08:30:14;;;;;;;6.63;3.03;;;6.30;59.90;;;;;;6243283;28;20041;-68
2021/12/12 08:33:15;;;;;;;7.80;3.97;;;6.30;59.70;;;;;;6238950;28;20041;-69
2021/12/12 08:36:16;;;;;;;4.65;2.78;;;6.40;59.50;;;;;;6224208;28;20125;-69
2021/12/12 08:39:18;;;;;;;6.15;3.28;;;6.40;59.50;;;;;;6224737;28;20046;-68
2021/12/12 08:42:20;;;;;;;4.45;2.97;;;6.40;59.30;;;;;;6224917;28;20042;-68
2021/12/12 08:45:29;;;;;;;7.57;3.28;;;6.40;59.30;;;;;;6238565;28;20045;-68
2021/12/12 08:48:32;;;;;;;6.32;3.00;;;6.50;59.20;;;;;;6249371;28;20984;-69
2021/12/12 08:51:36;;;;;;;8.43;3.45;;;6.60;59.10;;;;;;6249019;28;20092;-69
2021/12/12 08:54:40;;;;;;;6.13;2.75;;;6.60;58.90;;;;;;6247955;28;20034;-69
2021/12/12 08:57:52;;;;;;;7.25;3.80;;;6.70;58.90;;;;;;6247680;28;20040;-69
2021/12/12 09:01:11;;;;;;;4.38;2.65;;;6.70;58.90;;;;;;6245871;28;20030;-69
2021/12/12 09:04:13;;;;;;;9.30;4.32;;;6.90;58.80;;;;;;6233699;28;20125;-69
2021/12/12 09:07:22;;;;;;;12.02;3.20;;;7.00;58.70;;;;;;6223097;28;20038;-69
2021/12/12 09:10:27;;;;;;;6.95;3.60;;;7.00;58.50;;;;;;6239238;28;20034;-69
2021/12/12 09:13:35;;;;;;;7.10;3.20;;;7.10;58.40;;;;;;6223240;28;20459;-69
2021/12/12 09:16:59;;;;;;;8.18;3.95;;;7.20;58.20;;;;;;6222838;28;20080;-68
2021/12/12 09:20:27;;;;;;;8.23;2.95;;;7.20;58.00;;;;;;6223673;28;20045;-68
2021/12/12 09:23:37;;;;;;;9.45;3.53;;;7.20;57.90;;;;;;6198480;28;20046;-68
2021/12/12 09:26:48;;;;;;;6.95;3.42;;;7.20;57.70;;;;;;6207614;28;20034;-67
2021/12/12 09:30:00;;;;;;;11.38;4.60;;;7.20;57.40;;;;;;6239292;28;20489;-68
2021/12/12 09:33:17;;;;;;;6.18;4.05;;;7.20;57.50;;;;;;6243094;28;20042;-68
2021/12/12 09:36:28;;;;;;;5.00;3.13;;;7.20;57.70;;;;;;6224050;28;20056;-68
2021/12/12 09:39:38;;;;;;;10.05;3.67;;;7.20;57.80;;;;;;6223949;28;20141;-68
2021/12/12 09:42:46;;;;;;;10.82;4.78;;;7.30;57.60;;;;;;6223455;28;20533;-69
2021/12/12 09:46:02;;;;;;;9.48;3.50;;;7.40;57.70;;;;;;6262101;28;20490;-69
2021/12/12 09:53:19;;;;;;;7.03;3.78;;;7.60;57.50;;;;;;6277801;28;20439;-68
2021/12/12 09:56:48;;;;;;;10.57;4.78;;;7.80;57.10;;;;;;6247581;28;20033;-69
2021/12/12 09:59:58;;;;;;;6.63;3.60;;;8.00;56.40;;;;;;6257004;28;20089;-69
2021/12/12 10:03:15;;;;;;;6.38;3.60;;;8.30;56.30;;;;;;6238768;28;20045;-68
2021/12/12 10:06:33;;;;;;;12.45;4.57;;;8.50;55.30;;;;;;6220928;28;20025;-68
2021/12/12 10:09:52;;;;;;;6.53;2.63;;;8.70;54.80;;;;;;6223478;28;20049;-68
2021/12/12 10:13:01;;;;;;;7.10;3.70;;;8.90;54.80;;;;;;6200323;28;20033;-68
2021/12/12 10:16:12;;;;;;;5.35;2.95;;;9.00;54.10;;;;;;6264602;28;20186;-68
2021/12/12 10:19:58;;;;;;;16.70;6.78;;;9.20;53.80;;;;;;6272764;28;20037;-68
2021/12/12 10:23:04;;;;;;;9.20;4.80;;;9.40;52.40;;;;;;6172817;28;20122;-68
2021/12/12 10:26:05;;;;;;;18.90;6.68;;;9.40;51.70;;;;;;6173894;28;20030;-69
2021/12/12 10:29:16;;;;;;;9.30;4.38;;;9.40;51.20;;;;;;6174329;28;20039;-69
2021/12/12 10:32:24;;;;;;;5.13;2.80;;;9.40;51.40;;;;;;6171785;28;20038;-69
2021/12/12 10:35:33;;;;;;;7.13;2.93;;;9.60;51.00;;;;;;6198113;28;20070;-68
2021/12/12 10:38:52;;;;;;;13.75;5.50;;;9.70;51.20;;;;;;6175235;28;20751;-68
2021/12/12 10:41:58;;;;;;;3.83;2.40;;;9.90;51.00;;;;;;6173128;28;20054;-68
2021/12/12 10:45:09;;;;;;;11.45;4.35;;;10.20;50.10;;;;;;6169960;28;20046;-68
2021/12/12 10:48:19;;;;;;;6.03;2.95;;;10.50;49.40;;;;;;6182436;28;20038;-67
2021/12/12 10:51:22;;;;;;;8.80;3.75;;;10.90;48.60;;;;;;6198559;28;20038;-68
2021/12/12 10:54:38;;;;;;;9.40;3.60;;;11.30;47.50;;;;;;6182022;28;20072;-67
2021/12/12 10:57:42;;;;;;;9.68;5.00;;;11.50;47.30;;;;;;6196756;28;20037;-70
2021/12/12 11:00:49;;;;;;;6.53;3.25;;;11.90;46.70;;;;;;6243119;28;20025;-69
2021/12/12 11:03:53;;;;;;;11.90;4.93;;;12.40;45.60;;;;;;6244834;28;20025;-68
2021/12/12 11:07:02;;;;;;;11.10;4.38;;;12.70;44.80;;;;;;6248727;28;20045;-69
2021/12/12 11:10:33;;;;;;;23.63;9.77;;;13.10;44.40;;;;;;6248760;28;20045;-69
2021/12/12 11:13:59;;;;;;;6.15;3.03;;;13.60;43.70;;;;;;6248077;28;20033;-68
2021/12/12 11:17:17;;;;;;;5.47;2.70;;;14.10;42.10;;;;;;6272420;28;20025;-68
2021/12/12 11:20:22;;;;;;;7.63;4.80;;;14.40;41.40;;;;;;6272441;28;20055;-68
2021/12/12 11:23:28;;;;;;;6.85;3.72;;;14.70;41.00;;;;;;6273580;28;20322;-68
2021/12/12 11:26:43;;;;;;;24.92;11.20;;;15.00;39.90;;;;;;6255806;28;20341;-68
2021/12/12 11:30:21;;;;;;;14.18;6.25;;;15.20;38.10;;;;;;6230734;28;20405;-68
2021/12/12 11:33:23;;;;;;;11.20;5.65;;;15.10;37.80;;;;;;6204831;28;20471;-68
2021/12/12 11:36:32;;;;;;;7.40;4.03;;;14.80;38.20;;;;;;6197704;28;20113;-68
2021/12/12 11:39:40;;;;;;;10.40;5.00;;;14.30;39.80;;;;;;6222564;28;20458;-69
2021/12/12 11:42:57;;;;;;;5.50;3.33;;;13.80;40.80;;;;;;6221840;28;20034;-68
2021/12/12 11:46:05;;;;;;;21.02;9.68;;;13.20;41.20;;;;;;6261514;28;20033;-68
2021/12/12 11:49:23;;;;;;;12.38;5.05;;;12.60;41.60;;;;;;6271051;28;20043;-68
2021/12/12 11:53:05;;;;;;;16.65;7.25;;;12.10;43.10;;;;;;6270662;28;20090;-68
2021/12/12 11:56:27;;;;;;;26.05;10.02;;;11.70;44.20;;;;;;6251947;28;20037;-69
2021/12/12 11:59:59;;;;;;;25.38;9.52;;;11.40;44.80;;;;;;6239186;28;20033;-68
2021/12/12 12:03:23;;;;;;;18.92;8.05;;;11.10;45.10;;;;;;6240809;28;20042;-68
2021/12/12 12:06:44;;;;;;;29.50;10.82;;;10.90;45.80;;;;;;6194854;28;20049;-68
2021/12/12 12:09:55;;;;;;;11.77;5.65;;;10.70;46.20;;;;;;6220054;28;20105;-68
2021/12/12 12:13:20;;;;;;;12.77;5.57;;;10.60;46.60;;;;;;6219934;28;20030;-68
2021/12/12 12:16:30;;;;;;;29.08;8.85;;;10.40;46.80;;;;;;6248881;28;20055;-69
2021/12/12 12:20:13;;;;;;;27.70;11.77;;;10.30;47.00;;;;;;6255726;28;20109;-68
2021/12/12 12:23:18;;;;;;;8.88;4.20;;;10.20;47.40;;;;;;6235060;28;20034;-69
2021/12/12 12:30:07;;;;;;;8.35;3.80;;;10.00;47.90;;;;;;6230676;28;20098;-69
2021/12/12 12:33:26;;;;;;;17.92;6.72;;;9.90;48.10;;;;;;6220343;28;20121;-68
2021/12/12 12:37:04;;;;;;;23.40;8.65;;;9.80;48.30;;;;;;6212175;28;20092;-69
2021/12/12 12:40:36;;;;;;;26.35;7.22;;;9.80;48.40;;;;;;6216504;28;20045;-68
2021/12/12 12:44:14;;;;;;;9.35;3.95;;;9.80;48.70;;;;;;6216024;28;20333;-67
2021/12/12 12:47:52;;;;;;;15.20;8.05;;;9.70;48.90;;;;;;6240840;28;20053;-68
2021/12/12 12:51:18;;;;;;;15.85;6.90;;;9.60;49.10;;;;;;6240847;28;20041;-69
2021/12/12 12:54:25;;;;;;;11.80;4.85;;;9.60;49.00;;;;;;6240894;28;20033;-69
2021/12/12 12:57:40;;;;;;;9.57;4.45;;;9.60;49.00;;;;;;6225536;28;20180;-69
2021/12/12 13:00:44;;;;;;;8.05;3.60;;;9.50;49.00;;;;;;6196005;28;20431;-69
2021/12/12 13:04:16;;;;;;;14.13;6.43;;;9.50;49.20;;;;;;6200204;28;20042;-68
2021/12/12 13:07:55;;;;;;;10.13;3.50;;;9.50;49.30;;;;;;6191907;28;20113;-68
2021/12/12 13:10:59;;;;;;;6.07;2.80;;;9.40;49.20;;;;;;6227264;28;20341;-69
2021/12/12 13:14:16;;;;;;;6.95;3.08;;;9.40;49.30;;;;;;6223857;28;20101;-69
2021/12/12 13:17:17;;;;;;;6.68;3.17;;;9.40;49.30;;;;;;6267261;28;20025;-68
2021/12/12 13:20:54;;;;;;;5.85;2.75;;;9.40;49.30;;;;;;6268735;28;20048;-69
2021/12/12 13:24:17;;;;;;;7.00;3.83;;;9.50;49.40;;;;;;6266678;28;20044;-69
2021/12/12 13:28:07;;;;;;;7.63;2.85;;;9.50;49.40;;;;;;6267219;28;20028;-68
2021/12/12 13:31:20;;;;;;;13.15;3.40;;;9.50;49.40;;;;;;6217992;28;20125;-70
2021/12/12 13:34:36;;;;;;;6.85;3.20;;;9.40;49.50;;;;;;6224994;28;20125;-68
2021/12/12 13:37:56;;;;;;;6.03;2.83;;;9.50;49.50;;;;;;6217558;28;20096;-68
2021/12/12 13:41:11;;;;;;;6.28;3.13;;;9.50;49.50;;;;;;6218507;28;20398;-70
2021/12/12 13:44:21;;;;;;;9.38;3.20;;;9.50;49.60;;;;;;6226380;28;20041;-68
2021/12/12 13:47:52;;;;;;;8.50;3.53;;;9.40;49.80;;;;;;6266581;28;20122;-68
2021/12/12 13:51:09;;;;;;;21.20;5.85;;;9.40;49.80;;;;;;6267134;28;20049;-69
2021/12/12 13:54:46;;;;;;;16.45;6.85;;;9.40;49.90;;;;;;6251810;28;20029;-68
2021/12/12 13:58:12;;;;;;;6.80;4.28;;;9.40;50.00;;;;;;6268138;28;20037;-68
2021/12/12 14:01:22;;;;;;;20.30;8.25;;;9.40;50.10;;;;;;6150803;28;20097;-68
2021/12/12 14:04:47;;;;;;;19.50;6.95;;;9.40;50.30;;;;;;6154903;28;20037;-68
2021/12/12 14:07:55;;;;;;;5.97;3.47;;;9.30;50.40;;;;;;6073596;29;20184;-68
2021/12/12 14:11:04;;;;;;;18.23;7.47;;;9.30;50.60;;;;;;6094182;29;20039;-68
2021/12/12 14:14:20;;;;;;;11.90;4.47;;;9.30;50.60;;;;;;6122645;29;20039;-68
2021/12/12 14:17:39;;;;;;;29.38;10.23;;;9.30;50.80;;;;;;6111740;29;20039;-68
2021/12/12 14:20:48;;;;;;;17.40;5.43;;;9.30;50.70;;;;;;6105276;29;20102;-68
2021/12/12 14:23:50;;;;;;;9.15;4.05;;;9.30;50.60;;;;;;6120235;29;20050;-68
2021/12/12 14:26:54;;;;;;;4.82;2.58;;;9.30;50.50;;;;;;6104452;29;20031;-70
2021/12/12 14:29:55;;;;;;;5.40;2.70;;;9.20;50.50;;;;;;6119223;28;20050;-69
2021/12/12 14:33:01;;;;;;;4.28;2.65;;;9.20;50.60;;;;;;6114435;29;20042;-69
2021/12/12 14:36:08;;;;;;;5.10;2.90;;;9.20;50.60;;;;;;6133468;29;20031;-70
2021/12/12 14:39:10;;;;;;;6.10;2.85;;;9.10;50.60;;;;;;6175243;28;20034;-69
2021/12/12 14:42:26;;;;;;;4.70;2.08;;;9.10;50.60;;;;;;6162645;28;20059;-69
2021/12/12 14:45:43;;;;;;;4.30;2.25;;;9.10;50.60;;;;;;6240808;28;20064;-69
2021/12/12 14:48:53;;;;;;;5.32;2.78;;;9.10;50.40;;;;;;6271260;28;20385;-68
2021/12/12 14:52:04;;;;;;;6.15;2.83;;;9.00;50.40;;;;;;6271206;28;20462;-68
2021/12/12 14:55:29;;;;;;;6.63;2.72;;;9.00;50.40;;;;;;6246177;28;20037;-69
2021/12/12 14:58:37;;;;;;;5.45;2.58;;;9.00;50.50;;;;;;6260974;28;20041;-68
2021/12/12 15:01:48;;;;;;;4.90;2.63;;;9.00;50.40;;;;;;6246978;28;20037;-68
2021/12/12 15:05:11;;;;;;;7.72;4.15;;;9.00;50.40;;;;;;6228290;28;20030;-68
2021/12/12 15:08:39;;;;;;;5.25;2.53;;;8.90;50.40;;;;;;6198949;28;20034;-68
2021/12/12 15:11:51;;;;;;;10.88;4.32;;;8.90;50.50;;;;;;6199708;28;20329;-68
2021/12/12 15:15:05;;;;;;;6.45;2.60;;;8.80;50.60;;;;;;6221868;28;20036;-68
2021/12/12 15:18:15;;;;;;;20.98;4.47;;;8.80;50.80;;;;;;6271084;28;20040;-68
2021/12/12 15:21:25;;;;;;;3.95;2.58;;;8.70;50.90;;;;;;6273021;28;20516;-68
2021/12/12 15:24:30;;;;;;;7.90;2.85;;;8.70;50.80;;;;;;6279557;28;20108;-68
2021/12/12 15:27:35;;;;;;;8.80;3.80;;;8.70;50.90;;;;;;6255835;28;20033;-68
2021/12/12 15:30:56;;;;;;;5.47;2.95;;;8.70;51.00;;;;;;6249601;28;20037;-68
2021/12/12 15:34:03;;;;;;;6.25;2.90;;;8.60;51.20;;;;;;6233649;28;20046;-68
2021/12/12 15:37:08;;;;;;;9.98;4.55;;;8.60;51.20;;;;;;6214349;28;20053;-68
2021/12/12 15:40:20;;;;;;;18.20;6.35;;;8.60;51.20;;;;;;6181919;28;20380;-68
2021/12/12 15:43:29;;;;;;;11.85;5.05;;;8.60;51.30;;;;;;6197672;28;20447;-68
2021/12/12 15:46:38;;;;;;;7.30;3.15;;;8.60;51.40;;;;;;6257426;28;20466;-67
2021/12/12 15:49:49;;;;;;;6.18;2.97;;;8.50;51.50;;;;;;6248218;28;20050;-68
2021/12/12 15:52:58;;;;;;;5.68;2.38;;;8.50;51.50;;;;;;6248090;28;20056;-68
2021/12/12 15:56:11;;;;;;;8.20;3.42;;;8.50;51.60;;;;;;6248075;28;20052;-69
2021/12/12 15:59:21;;;;;;;7.80;3.75;;;8.50;51.70;;;;;;6230465;28;20095;-68
2021/12/12 16:02:27;;;;;;;17.13;6.65;;;8.40;52.30;;;;;;6248051;28;20049;-68
2021/12/12 16:05:36;;;;;;;17.55;8.90;;;8.50;51.90;;;;;;6223648;28;20042;-68
2021/12/12 16:08:41;;;;;;;12.30;4.93;;;8.40;52.00;;;;;;6224115;28;20033;-69
2021/12/12 16:11:44;;;;;;;16.65;5.28;;;8.50;52.10;;;;;;6224069;28;20349;-69
2021/12/12 16:14:55;;;;;;;21.35;7.63;;;8.50;52.20;;;;;;6246656;28;20029;-68
2021/12/12 16:17:57;;;;;;;14.82;4.22;;;8.50;52.20;;;;;;6272581;28;20041;-69
2021/12/12 16:20:59;;;;;;;8.32;4.47;;;8.40;52.20;;;;;;6272461;28;20029;-68
2021/12/12 16:24:03;;;;;;;13.77;6.38;;;8.40;52.30;;;;;;6272464;28;20033;-68
2021/12/12 16:27:10;;;;;;;10.25;4.32;;;8.40;52.40;;;;;;6273278;28;20357;-68
2021/12/12 16:30:24;;;;;;;11.02;3.88;;;8.40;52.60;;;;;;6253355;28;20139;-69
2021/12/12 16:33:35;;;;;;;13.00;5.35;;;8.30;52.60;;;;;;6275296;28;20142;-69
2021/12/12 16:36:52;;;;;;;13.52;5.82;;;8.30;52.70;;;;;;6223455;28;20030;-69
2021/12/12 16:39:59;;;;;;;20.88;9.18;;;8.30;52.90;;;;;;6219500;28;20037;-69
2021/12/12 16:43:14;;;;;;;35.65;11.88;;;8.20;53.10;;;;;;6226395;28;20141;-69
2021/12/12 16:46:17;;;;;;;29.88;12.43;;;8.20;53.20;;;;;;6261882;28;20037;-68
2021/12/12 16:49:21;;;;;;;30.00;12.60;;;8.20;53.30;;;;;;6270771;28;20106;-69
2021/12/12 16:52:26;;;;;;;39.10;14.27;;;8.20;53.40;;;;;;6270559;28;20040;-68
2021/12/12 16:55:30;;;;;;;43.03;13.73;;;8.20;53.70;;;;;;6271422;28;20029;-69
2021/12/12 16:58:36;;;;;;;13.35;6.43;;;8.10;53.60;;;;;;6261707;28;20048;-68
2021/12/12 17:01:42;;;;;;;13.35;7.07;;;8.10;53.70;;;;;;6220928;28;20034;-68